createdAt,value
2017-06-20T00:01:30.998Z,101227
2017-06-20T00:03:59.721Z,101218
2017-06-20T00:06:28.972Z,101224
2017-06-20T00:08:57.501Z,101218
2017-06-20T00:11:27.007Z,101220
2017-06-20T00:13:56.301Z,101221
2017-06-20T00:16:25.532Z,101221
2017-06-20T00:18:54.025Z,101219
2017-06-20T00:21:23.191Z,101217
2017-06-20T00:23:52.441Z,101210
2017-06-20T00:26:20.930Z,101202
2017-06-20T00:28:49.455Z,101207
2017-06-20T00:31:18.720Z,101206
2017-06-20T00:33:47.214Z,101204
2017-06-20T00:36:15.755Z,101210
2017-06-20T00:38:44.598Z,101196
2017-06-20T00:41:13.893Z,101201
2017-06-20T00:43:42.666Z,101197
2017-06-20T00:46:11.470Z,101194
2017-06-20T00:48:40.766Z,101191
2017-06-20T00:51:09.296Z,101199
2017-06-20T00:53:37.805Z,101201
2017-06-20T00:56:06.392Z,101201
2017-06-20T00:58:34.898Z,101197
2017-06-20T01:01:03.591Z,101190
2017-06-20T01:03:32.237Z,101199
2017-06-20T01:06:02.362Z,101194
2017-06-20T01:08:30.900Z,101190
2017-06-20T01:11:00.162Z,101191
2017-06-20T01:13:28.662Z,101195
2017-06-20T01:15:57.162Z,101180
2017-06-20T01:18:26.393Z,101193
2017-06-20T01:20:54.876Z,101189
2017-06-20T01:23:23.355Z,101198
2017-06-20T01:25:52.536Z,101185
2017-06-20T01:28:21.773Z,101189
2017-06-20T01:30:50.451Z,101190
2017-06-20T01:33:19.209Z,101185
2017-06-20T01:35:47.725Z,101190
2017-06-20T01:38:16.186Z,101183
2017-06-20T01:40:44.725Z,101197
2017-06-20T01:43:13.314Z,101188
2017-06-20T01:45:41.971Z,101185
2017-06-20T01:48:10.710Z,101186
2017-06-20T01:50:41.433Z,101186
2017-06-20T01:53:10.105Z,101186
2017-06-20T01:55:38.688Z,101189
2017-06-20T01:58:07.234Z,101186
2017-06-20T02:00:35.935Z,101180
2017-06-20T02:03:04.473Z,101179
2017-06-20T02:05:33.906Z,101181
2017-06-20T02:08:02.458Z,101178
2017-06-20T02:10:32.946Z,101174
2017-06-20T02:13:01.470Z,101177
2017-06-20T02:15:30.010Z,101174
2017-06-20T02:17:58.806Z,101168
2017-06-20T02:20:27.416Z,101175
2017-06-20T02:22:55.907Z,101177
2017-06-20T02:25:24.703Z,101179
2017-06-20T02:27:53.965Z,101185
2017-06-20T02:30:23.009Z,101191
2017-06-20T02:32:51.538Z,101186
2017-06-20T02:35:20.022Z,101193
2017-06-20T02:37:48.530Z,101192
2017-06-20T02:40:17.027Z,101196
2017-06-20T02:42:46.286Z,101189
2017-06-20T02:45:15.008Z,101197
2017-06-20T02:47:44.559Z,101193
2017-06-20T02:50:13.210Z,101193
2017-06-20T02:52:43.142Z,101194
2017-06-20T02:55:11.623Z,101193
2017-06-20T02:57:40.296Z,101199
2017-06-20T03:00:09.534Z,101188
2017-06-20T03:02:38.037Z,101197
2017-06-20T03:05:06.525Z,101203
2017-06-20T03:07:35.025Z,101201
2017-06-20T03:10:03.522Z,101192
2017-06-20T03:12:33.231Z,101185
2017-06-20T03:15:02.522Z,101203
2017-06-20T03:17:31.208Z,101190
2017-06-20T03:19:59.711Z,101198
2017-06-20T03:22:29.202Z,101202
2017-06-20T03:24:58.490Z,101199
2017-06-20T03:27:27.414Z,101196
2017-06-20T03:29:56.093Z,101195
2017-06-20T03:32:25.310Z,101196
2017-06-20T03:34:53.801Z,101189
2017-06-20T03:37:22.279Z,101190
2017-06-20T03:39:51.006Z,101198
2017-06-20T03:42:19.498Z,101198
2017-06-20T03:44:48.062Z,101195
2017-06-20T03:47:16.678Z,101194
2017-06-20T03:49:45.383Z,101203
2017-06-20T03:52:15.237Z,101196
2017-06-20T03:54:43.764Z,101204
2017-06-20T03:57:12.278Z,101203
2017-06-20T03:59:40.906Z,101206
2017-06-20T04:02:09.620Z,101201
2017-06-20T04:04:38.173Z,101203
2017-06-20T04:07:07.150Z,101212
2017-06-20T04:09:35.663Z,101204
2017-06-20T04:12:04.386Z,101202
2017-06-20T04:14:33.620Z,101206
2017-06-20T04:17:02.090Z,101211
2017-06-20T04:19:30.854Z,101206
2017-06-20T04:22:00.109Z,101203
2017-06-20T04:24:28.549Z,101202
2017-06-20T04:26:57.713Z,101205
2017-06-20T04:29:26.422Z,101199
2017-06-20T04:31:55.807Z,101204
2017-06-20T04:34:24.410Z,101204
2017-06-20T04:36:53.693Z,101214
2017-06-20T04:39:22.166Z,101205
2017-06-20T04:41:50.661Z,101210
2017-06-20T04:44:19.151Z,101202
2017-06-20T04:46:48.391Z,101205
2017-06-20T04:49:16.978Z,101216
2017-06-20T04:51:46.017Z,101207
2017-06-20T04:54:14.557Z,101215
2017-06-20T04:56:43.054Z,101219
2017-06-20T04:59:11.666Z,101214
2017-06-20T05:01:40.152Z,101225
2017-06-20T05:04:08.642Z,101222
2017-06-20T05:06:37.932Z,101223
2017-06-20T05:09:06.600Z,101231
2017-06-20T05:11:35.665Z,101228
2017-06-20T05:14:04.206Z,101235
2017-06-20T05:16:33.231Z,101232
2017-06-20T05:19:01.110Z,101245
2017-06-20T05:21:29.130Z,101244
2017-06-20T05:23:57.819Z,101245
2017-06-20T05:26:25.849Z,101253
2017-06-20T05:28:54.370Z,101253
2017-06-20T05:31:22.254Z,101257
2017-06-20T05:33:50.232Z,101252
2017-06-20T05:36:18.875Z,101252
2017-06-20T05:38:47.333Z,101260
2017-06-20T05:41:15.893Z,101259
2017-06-20T05:43:44.394Z,101262
2017-06-20T05:46:13.413Z,101260
2017-06-20T05:48:41.958Z,101265
2017-06-20T05:51:10.449Z,101267
2017-06-20T05:53:38.942Z,101270
2017-06-20T05:56:07.582Z,101273
2017-06-20T05:58:36.861Z,101273
2017-06-20T06:01:05.411Z,101271
2017-06-20T06:03:34.046Z,101265
2017-06-20T06:06:02.754Z,101271
2017-06-20T06:08:31.984Z,101277
2017-06-20T06:11:00.926Z,101269
2017-06-20T06:13:29.592Z,101275
2017-06-20T06:15:58.117Z,101278
2017-06-20T06:18:27.515Z,101285
2017-06-20T06:20:56.309Z,101288
2017-06-20T06:23:25.766Z,101284
2017-06-20T06:25:54.275Z,101285
2017-06-20T06:28:23.563Z,101284
2017-06-20T06:30:52.285Z,101282
2017-06-20T06:33:22.133Z,101289
2017-06-20T06:35:50.638Z,101292
2017-06-20T06:38:19.165Z,101299
2017-06-20T06:40:48.443Z,101306
2017-06-20T06:43:17.156Z,101297
2017-06-20T06:45:45.790Z,101296
2017-06-20T06:48:14.514Z,101319
2017-06-20T06:50:44.603Z,101319
2017-06-20T06:53:13.540Z,101312
2017-06-20T06:55:43.072Z,101319
2017-06-20T06:58:11.940Z,101309
2017-06-20T07:00:41.239Z,101307
2017-06-20T07:03:10.494Z,101312
2017-06-20T07:05:39.432Z,101307
2017-06-20T07:08:09.705Z,101306
2017-06-20T07:10:39.019Z,101318
2017-06-20T07:13:08.001Z,101320
2017-06-20T07:15:36.550Z,101323
2017-06-20T07:18:05.074Z,101323
2017-06-20T07:20:33.539Z,101322
2017-06-20T07:23:02.141Z,101318
2017-06-20T07:25:30.654Z,101326
2017-06-20T07:27:59.972Z,101337
2017-06-20T07:30:29.254Z,101333
2017-06-20T07:32:57.185Z,101327
2017-06-20T07:35:25.156Z,101335
2017-06-20T07:37:54.264Z,101336
2017-06-20T07:40:22.233Z,101347
2017-06-20T07:42:50.198Z,101348
2017-06-20T07:45:18.676Z,101352
2017-06-20T07:47:46.888Z,101360
2017-06-20T07:50:15.499Z,101347
2017-06-20T07:52:43.437Z,101352
2017-06-20T07:55:11.532Z,101357
2017-06-20T07:57:40.833Z,101364
2017-06-20T08:00:09.519Z,101366
2017-06-20T08:02:38.146Z,101359
2017-06-20T08:05:06.070Z,101355
2017-06-20T08:07:34.759Z,101363
2017-06-20T08:10:03.425Z,101369
2017-06-20T08:12:31.271Z,101366
2017-06-20T08:14:59.544Z,101372
2017-06-20T08:17:27.456Z,101379
2017-06-20T08:19:56.306Z,101376
2017-06-20T08:22:24.214Z,101380
2017-06-20T08:24:52.845Z,101378
2017-06-20T08:27:20.769Z,101381
2017-06-20T08:29:48.693Z,101382
2017-06-20T08:32:16.687Z,101378
2017-06-20T08:34:45.191Z,101376
2017-06-20T08:37:18.383Z,101377
2017-06-20T08:39:47.032Z,101376
2017-06-20T08:42:14.914Z,101378
2017-06-20T08:44:43.607Z,101374
2017-06-20T08:47:13.085Z,101386
2017-06-20T08:49:41.796Z,101382
2017-06-20T08:52:10.503Z,101388
2017-06-20T08:54:39.786Z,101381
2017-06-20T08:57:08.434Z,101388
2017-06-20T08:59:36.302Z,101381
2017-06-20T09:02:04.165Z,101399
2017-06-20T09:04:32.299Z,101396
2017-06-20T09:07:00.958Z,101396
2017-06-20T09:09:28.893Z,101390
2017-06-20T09:11:57.131Z,101400
2017-06-20T09:14:25.753Z,101396
2017-06-20T09:16:53.685Z,101393
2017-06-20T09:19:22.371Z,101398
2017-06-20T09:21:50.998Z,101401
2017-06-20T09:24:18.893Z,101404
2017-06-20T09:26:46.934Z,101397
2017-06-20T09:29:14.779Z,101401
2017-06-20T09:31:43.989Z,101407
2017-06-20T09:34:12.443Z,101398
2017-06-20T09:36:41.161Z,101411
2017-06-20T09:39:09.129Z,101413
2017-06-20T09:41:37.021Z,101409
2017-06-20T09:44:05.072Z,101411
2017-06-20T09:46:32.950Z,101405
2017-06-20T09:49:01.310Z,101404
2017-06-20T09:51:29.255Z,101411
2017-06-20T09:54:02.658Z,101409
2017-06-20T09:56:30.539Z,101421
2017-06-20T09:58:58.543Z,101418
2017-06-20T10:01:26.559Z,101420
2017-06-20T10:03:54.477Z,101419
2017-06-20T10:06:22.989Z,101419
2017-06-20T10:08:52.110Z,101417
2017-06-20T10:11:20.999Z,101424
2017-06-20T10:13:50.537Z,101427
2017-06-20T10:16:18.505Z,101432
2017-06-20T10:18:46.441Z,101427
2017-06-20T10:21:15.077Z,101430
2017-06-20T10:23:42.974Z,101427
2017-06-20T10:26:11.075Z,101439
2017-06-20T10:28:38.986Z,101427
2017-06-20T10:31:08.009Z,101440
2017-06-20T10:33:36.997Z,101437
2017-06-20T10:36:05.506Z,101430
2017-06-20T10:38:34.047Z,101440
2017-06-20T10:41:02.543Z,101433
2017-06-20T10:43:31.214Z,101436
2017-06-20T10:45:59.775Z,101440
2017-06-20T10:48:28.262Z,101439
2017-06-20T10:50:56.779Z,101432
2017-06-20T10:53:25.369Z,101435
2017-06-20T10:55:53.866Z,101433
2017-06-20T10:58:25.671Z,101444
2017-06-20T11:00:54.155Z,101435
2017-06-20T11:03:22.734Z,101433
2017-06-20T11:05:51.283Z,101435
2017-06-20T11:08:20.789Z,101433
2017-06-20T11:10:50.098Z,101440
2017-06-20T11:13:18.752Z,101437
2017-06-20T11:15:48.635Z,101434
2017-06-20T11:18:17.736Z,101427
2017-06-20T11:20:47.365Z,101423
2017-06-20T11:23:15.220Z,101429
2017-06-20T11:25:43.425Z,101430
2017-06-20T11:28:11.294Z,101426
2017-06-20T11:30:39.910Z,101430
2017-06-20T11:33:07.860Z,101433
2017-06-20T11:35:37.182Z,101436
2017-06-20T11:38:05.849Z,101429
2017-06-20T11:40:35.073Z,101431
2017-06-20T11:43:03.632Z,101435
2017-06-20T11:45:32.270Z,101430
2017-06-20T11:48:00.370Z,101432
2017-06-20T11:50:32.310Z,101430
2017-06-20T11:53:00.179Z,101427
2017-06-20T11:55:28.291Z,101434
2017-06-20T11:57:56.977Z,101440
2017-06-20T12:00:26.116Z,101433
2017-06-20T12:02:54.202Z,101432
2017-06-20T12:05:22.425Z,101442
2017-06-20T12:07:51.724Z,101447
2017-06-20T12:10:20.349Z,101442
2017-06-20T12:12:50.711Z,101434
2017-06-20T12:15:20.827Z,101440
2017-06-20T12:17:49.184Z,101449
2017-06-20T12:20:17.185Z,101447
2017-06-20T12:22:46.268Z,101453
2017-06-20T12:25:15.140Z,101439
2017-06-20T12:27:44.066Z,101439
2017-06-20T12:30:12.721Z,101440
2017-06-20T12:32:42.894Z,101442
2017-06-20T12:35:11.997Z,101437
2017-06-20T12:37:41.269Z,101447
2017-06-20T12:40:09.972Z,101446
2017-06-20T12:42:39.848Z,101442
2017-06-20T12:45:09.409Z,101433
2017-06-20T12:47:38.144Z,101439
2017-06-20T12:50:07.140Z,101446
2017-06-20T12:52:35.559Z,101446
2017-06-20T12:55:04.316Z,101448
2017-06-20T12:57:32.988Z,101442
2017-06-20T13:00:00.916Z,101437
2017-06-20T13:02:29.162Z,101442
2017-06-20T13:04:59.298Z,101437
2017-06-20T13:07:27.513Z,101448
2017-06-20T13:09:55.853Z,101450
2017-06-20T13:12:25.416Z,101448
2017-06-20T13:14:54.105Z,101453
2017-06-20T13:17:24.306Z,101455
2017-06-20T13:19:54.616Z,101439
2017-06-20T13:22:25.909Z,101445
2017-06-20T13:24:55.807Z,101446
2017-06-20T13:27:27.145Z,101446
2017-06-20T13:29:58.796Z,101452
2017-06-20T13:32:28.286Z,101448
2017-06-20T13:34:57.630Z,101456
2017-06-20T13:37:28.167Z,101443
2017-06-20T13:39:57.887Z,101459
2017-06-20T13:42:27.998Z,101462
2017-06-20T13:44:57.227Z,101453
2017-06-20T13:47:25.911Z,101465
2017-06-20T13:49:55.415Z,101459
2017-06-20T13:52:24.854Z,101461
2017-06-20T13:54:53.518Z,101463
2017-06-20T13:57:22.529Z,101456
2017-06-20T13:59:51.287Z,101455
2017-06-20T14:02:19.880Z,101462
2017-06-20T14:04:49.589Z,101459
2017-06-20T14:07:18.919Z,101462
2017-06-20T14:09:47.982Z,101467
2017-06-20T14:12:16.650Z,101460
2017-06-20T14:14:45.303Z,101464
2017-06-20T14:17:13.858Z,101457
2017-06-20T14:19:42.646Z,101461
2017-06-20T14:22:11.421Z,101457
2017-06-20T14:24:40.704Z,101450
2017-06-20T14:27:09.405Z,101458
2017-06-20T14:29:39.327Z,101456
2017-06-20T14:32:07.861Z,101467
2017-06-20T14:34:36.375Z,101451
2017-06-20T14:37:04.902Z,101463
2017-06-20T14:39:34.476Z,101452
2017-06-20T14:42:03.939Z,101449
2017-06-20T14:44:32.455Z,101451
2017-06-20T14:47:01.102Z,101453
2017-06-20T14:49:29.718Z,101447
2017-06-20T14:51:58.747Z,101438
2017-06-20T14:54:29.750Z,101449
2017-06-20T14:56:58.665Z,101447
2017-06-20T14:59:27.251Z,101449
2017-06-20T15:01:56.711Z,101446
2017-06-20T15:04:25.601Z,101446
2017-06-20T15:06:54.179Z,101435
2017-06-20T15:09:22.849Z,101449
2017-06-20T15:11:51.764Z,101454
2017-06-20T15:14:20.546Z,101440
2017-06-20T15:16:49.741Z,101441
2017-06-20T15:19:18.380Z,101441
2017-06-20T15:21:47.826Z,101444
2017-06-20T15:24:16.327Z,101450
2017-06-20T15:26:45.058Z,101458
2017-06-20T15:29:14.414Z,101450
2017-06-20T15:31:42.979Z,101449
2017-06-20T15:34:11.887Z,101449
2017-06-20T15:36:42.034Z,101452
2017-06-20T15:39:10.990Z,101444
2017-06-20T15:41:40.190Z,101447
2017-06-20T15:44:08.941Z,101445
2017-06-20T15:46:38.211Z,101448
2017-06-20T15:49:14.565Z,101449
2017-06-20T15:51:43.129Z,101444
2017-06-20T15:54:11.714Z,101442
2017-06-20T15:56:40.298Z,101449
2017-06-20T15:59:08.864Z,101444
2017-06-20T16:01:37.505Z,101445
2017-06-20T16:04:06.022Z,101445
2017-06-20T16:06:34.932Z,101440
2017-06-20T16:09:03.721Z,101438
2017-06-20T16:11:32.359Z,101438
2017-06-20T16:14:00.994Z,101445
2017-06-20T16:16:29.738Z,101441
2017-06-20T16:18:58.380Z,101442
2017-06-20T16:21:26.921Z,101441
2017-06-20T16:23:58.832Z,101440
2017-06-20T16:26:27.962Z,101449
2017-06-20T16:28:59.794Z,101445
2017-06-20T16:31:28.413Z,101447
2017-06-20T16:33:58.171Z,101444
2017-06-20T16:36:27.854Z,101445
2017-06-20T16:38:57.213Z,101440
2017-06-20T16:41:26.252Z,101442
2017-06-20T16:43:55.754Z,101445
2017-06-20T16:46:25.225Z,101449
2017-06-20T16:48:53.948Z,101432
2017-06-20T16:51:23.231Z,101444
2017-06-20T16:53:52.141Z,101443
2017-06-20T16:56:21.670Z,101449
2017-06-20T16:58:50.566Z,101450
2017-06-20T17:01:19.227Z,101443
2017-06-20T17:03:48.016Z,101454
2017-06-20T17:06:17.254Z,101449
2017-06-20T17:08:46.329Z,101449
2017-06-20T17:11:14.853Z,101443
2017-06-20T17:13:43.409Z,101440
2017-06-20T17:16:12.577Z,101447
2017-06-20T17:18:42.085Z,101451
2017-06-20T17:21:11.366Z,101451
2017-06-20T17:23:39.870Z,101451
2017-06-20T17:26:09.166Z,101446
2017-06-20T17:28:38.445Z,101445
2017-06-20T17:31:07.139Z,101440
2017-06-20T17:33:36.083Z,101447
2017-06-20T17:36:04.767Z,101454
2017-06-20T17:38:33.338Z,101450
2017-06-20T17:41:01.910Z,101448
2017-06-20T17:43:30.573Z,101448
2017-06-20T17:45:59.239Z,101462
2017-06-20T17:48:32.593Z,101457
2017-06-20T17:51:01.318Z,101463
2017-06-20T17:53:30.215Z,101463
2017-06-20T17:55:58.126Z,101459
2017-06-20T17:58:26.573Z,101466
2017-06-20T18:00:54.656Z,101458
2017-06-20T18:03:23.574Z,101464
2017-06-20T18:05:52.261Z,101459
2017-06-20T18:08:20.925Z,101467
2017-06-20T18:10:52.027Z,101466
2017-06-20T18:13:20.725Z,101471
2017-06-20T18:15:49.335Z,101472
2017-06-20T18:18:18.170Z,101477
2017-06-20T18:20:47.048Z,101471
2017-06-20T18:23:15.681Z,101480
2017-06-20T18:25:44.179Z,101477
2017-06-20T18:28:12.750Z,101472
2017-06-20T18:30:40.707Z,101480
2017-06-20T18:33:08.585Z,101486
2017-06-20T18:35:36.912Z,101488
2017-06-20T18:38:06.213Z,101491
2017-06-20T18:40:35.723Z,101489
2017-06-20T18:43:05.163Z,101486
2017-06-20T18:45:33.709Z,101486
2017-06-20T18:48:03.267Z,101487
2017-06-20T18:50:31.798Z,101487
2017-06-20T18:53:00.339Z,101490
2017-06-20T18:55:29.075Z,101490
2017-06-20T18:57:58.358Z,101501
2017-06-20T19:00:27.062Z,101495
2017-06-20T19:02:56.804Z,101498
2017-06-20T19:05:25.462Z,101496
2017-06-20T19:07:54.147Z,101495
2017-06-20T19:10:23.447Z,101500
2017-06-20T19:12:52.938Z,101506
2017-06-20T19:15:21.641Z,101498
2017-06-20T19:17:50.306Z,101507
2017-06-20T19:20:19.777Z,101506
2017-06-20T19:22:48.520Z,101509
2017-06-20T19:25:18.413Z,101516
2017-06-20T19:27:47.107Z,101509
2017-06-20T19:30:15.734Z,101514
2017-06-20T19:32:44.497Z,101515
2017-06-20T19:35:13.185Z,101516
2017-06-20T19:37:42.667Z,101515
2017-06-20T19:40:11.211Z,101521
2017-06-20T19:42:39.813Z,101521
2017-06-20T19:45:08.839Z,101531
2017-06-20T19:47:37.391Z,101518
2017-06-20T19:50:05.994Z,101524
2017-06-20T19:52:34.782Z,101529
2017-06-20T19:55:03.524Z,101533
2017-06-20T19:57:32.249Z,101527
2017-06-20T20:00:00.810Z,101541
2017-06-20T20:02:29.340Z,101547
2017-06-20T20:04:58.466Z,101542
2017-06-20T20:07:27.411Z,101543
2017-06-20T20:09:55.991Z,101542
2017-06-20T20:12:24.506Z,101547
2017-06-20T20:14:53.925Z,101547
2017-06-20T20:17:22.452Z,101535
2017-06-20T20:19:51.172Z,101549
2017-06-20T20:22:20.291Z,101546
2017-06-20T20:24:49.596Z,101545
2017-06-20T20:27:18.339Z,101550
2017-06-20T20:29:46.868Z,101545
2017-06-20T20:32:16.143Z,101544
2017-06-20T20:34:44.905Z,101542
2017-06-20T20:37:13.801Z,101542
2017-06-20T20:39:42.387Z,101541
2017-06-20T20:42:11.071Z,101551
2017-06-20T20:44:39.645Z,101536
2017-06-20T20:47:08.190Z,101547
2017-06-20T20:49:36.870Z,101551
2017-06-20T20:52:05.440Z,101551
2017-06-20T20:54:34.249Z,101543
2017-06-20T20:57:03.382Z,101540
2017-06-20T20:59:31.906Z,101534
2017-06-20T21:02:00.851Z,101533
2017-06-20T21:04:29.454Z,101539
2017-06-20T21:06:58.276Z,101531
2017-06-20T21:09:28.704Z,101527
2017-06-20T21:11:57.289Z,101536
2017-06-20T21:14:26.131Z,101527
2017-06-20T21:16:54.683Z,101529
2017-06-20T21:19:23.974Z,101516
2017-06-20T21:21:53.218Z,101522
2017-06-20T21:24:21.758Z,101521
2017-06-20T21:26:50.308Z,101519
2017-06-20T21:29:18.887Z,101517
2017-06-20T21:31:47.507Z,101508
2017-06-20T21:34:16.205Z,101516
2017-06-20T21:36:44.898Z,101520
2017-06-20T21:39:13.390Z,101520
2017-06-20T21:41:42.354Z,101524
2017-06-20T21:44:10.911Z,101527
2017-06-20T21:46:39.578Z,101524
2017-06-20T21:49:08.146Z,101526
2017-06-20T21:51:36.848Z,101519
2017-06-20T21:54:05.501Z,101523
2017-06-20T21:56:34.953Z,101538
2017-06-20T21:59:03.606Z,101522
2017-06-20T22:01:32.369Z,101520
2017-06-20T22:04:00.935Z,101519
2017-06-20T22:06:29.851Z,101516
2017-06-20T22:08:59.658Z,101518
2017-06-20T22:11:28.173Z,101516
2017-06-20T22:13:56.750Z,101519
2017-06-20T22:16:25.562Z,101509
2017-06-20T22:18:54.168Z,101498
2017-06-20T22:21:22.778Z,101506
2017-06-20T22:23:51.459Z,101508
2017-06-20T22:26:20.380Z,101501
2017-06-20T22:28:49.491Z,101502
2017-06-20T22:31:18.167Z,101506
2017-06-20T22:33:47.605Z,101503
2017-06-20T22:36:16.522Z,101506
2017-06-20T22:38:45.299Z,101500
2017-06-20T22:41:13.937Z,101508
2017-06-20T22:43:43.282Z,101504
2017-06-20T22:46:11.928Z,101503
2017-06-20T22:48:41.437Z,101495
2017-06-20T22:51:10.126Z,101507
2017-06-20T22:53:38.651Z,101507
2017-06-20T22:56:07.165Z,101495
2017-06-20T22:58:35.693Z,101501
2017-06-20T23:01:04.210Z,101505
2017-06-20T23:03:32.975Z,101511
2017-06-20T23:06:01.482Z,101504
2017-06-20T23:08:30.286Z,101500
2017-06-20T23:10:58.789Z,101509
2017-06-20T23:13:28.022Z,101511
2017-06-20T23:15:56.637Z,101506
2017-06-20T23:18:25.189Z,101513
2017-06-20T23:20:53.719Z,101514
2017-06-20T23:23:22.407Z,101514
2017-06-20T23:25:51.491Z,101515
2017-06-20T23:28:20.210Z,101518
2017-06-20T23:30:49.470Z,101529
2017-06-20T23:33:18.044Z,101527
2017-06-20T23:35:46.909Z,101528
2017-06-20T23:38:15.591Z,101524
2017-06-20T23:40:44.274Z,101523
2017-06-20T23:43:13.734Z,101521
2017-06-20T23:45:42.602Z,101520
2017-06-20T23:48:11.156Z,101523
2017-06-20T23:50:40.505Z,101520
2017-06-20T23:53:08.971Z,101528
2017-06-20T23:55:37.570Z,101516
2017-06-20T23:58:06.103Z,101511
